PKK weather

Pakhokku Airport
Pakhokku, Magway Division, Burma

Public forecast

Using degrees Celsius for public forecast. Weather courtesy of forecast.io.

METAR (pilot weather report)

Closest report is Mandalay International Airport, 51.6 nm (95.6 km) ENE. Retrieved 2019/09/17 07:30 UTC (0 seconds ago):

VYMD 170730Z 29006KT 8000 BKN020 FEW025CB 36/24 Q1007

TAF (pilot weather forecast)

Closest forecast is Mandalay International Airport, 51.6 nm (95.6 km) ENE. Retrieved 2019/09/17 06:00 UTC (1 hour ago):

TAF VYMD 170500Z 1706/1806 14005KT 7000 BKN020 FEW025CB TEMPO 1706/1712 32007KT 6000 BKN018 FEW020CB BKN100